sensor_id;sensor_type;location;lat;lon;timestamp;P1;durP1;ratioP1;P2;durP2;ratioP2
18274;SDS011;19470;49.322;7.218;2023-04-21T00:01:50;21.10;;;13.40;;
18274;SDS011;19470;49.322;7.218;2023-04-21T00:04:20;20.70;;;12.23;;
18274;SDS011;19470;49.322;7.218;2023-04-21T00:06:47;18.65;;;12.40;;
18274;SDS011;19470;49.322;7.218;2023-04-21T00:09:14;20.58;;;13.57;;
18274;SDS011;19470;49.322;7.218;2023-04-21T00:11:42;14.30;;;11.13;;
18274;SDS011;19470;49.322;7.218;2023-04-21T00:14:08;19.20;;;13.00;;
18274;SDS011;19470;49.322;7.218;2023-04-21T00:16:35;21.35;;;12.60;;
18274;SDS011;19470;49.322;7.218;2023-04-21T00:19:01;16.65;;;12.05;;
18274;SDS011;19470;49.322;7.218;2023-04-21T00:21:32;18.65;;;12.25;;
18274;SDS011;19470;49.322;7.218;2023-04-21T00:23:58;22.35;;;13.23;;
18274;SDS011;19470;49.322;7.218;2023-04-21T00:26:25;20.33;;;14.27;;
18274;SDS011;19470;49.322;7.218;2023-04-21T00:28:51;21.08;;;13.95;;
18274;SDS011;19470;49.322;7.218;2023-04-21T00:31:18;22.20;;;14.68;;
18274;SDS011;19470;49.322;7.218;2023-04-21T00:33:44;21.00;;;13.87;;
18274;SDS011;19470;49.322;7.218;2023-04-21T00:36:11;21.95;;;14.82;;
18274;SDS011;19470;49.322;7.218;2023-04-21T00:38:39;21.88;;;15.13;;
18274;SDS011;19470;49.322;7.218;2023-04-21T00:41:05;21.97;;;14.77;;
18274;SDS011;19470;49.322;7.218;2023-04-21T00:43:34;25.23;;;15.77;;
18274;SDS011;19470;49.322;7.218;2023-04-21T00:46:01;26.40;;;16.05;;
18274;SDS011;19470;49.322;7.218;2023-04-21T00:48:28;24.73;;;16.13;;
18274;SDS011;19470;49.322;7.218;2023-04-21T00:50:54;27.47;;;16.77;;
18274;SDS011;19470;49.322;7.218;2023-04-21T00:53:21;28.30;;;17.37;;
18274;SDS011;19470;49.322;7.218;2023-04-21T00:55:49;28.50;;;17.03;;
18274;SDS011;19470;49.322;7.218;2023-04-21T00:58:15;25.30;;;15.90;;
18274;SDS011;19470;49.322;7.218;2023-04-21T01:00:42;21.23;;;14.20;;
18274;SDS011;19470;49.322;7.218;2023-04-21T01:03:09;23.77;;;14.50;;
18274;SDS011;19470;49.322;7.218;2023-04-21T01:05:36;23.65;;;14.68;;
18274;SDS011;19470;49.322;7.218;2023-04-21T01:08:02;23.38;;;15.05;;
18274;SDS011;19470;49.322;7.218;2023-04-21T01:10:31;25.13;;;16.13;;
18274;SDS011;19470;49.322;7.218;2023-04-21T01:12:59;23.43;;;15.87;;
18274;SDS011;19470;49.322;7.218;2023-04-21T01:15:25;22.83;;;15.15;;
18274;SDS011;19470;49.322;7.218;2023-04-21T01:17:54;25.50;;;15.20;;
18274;SDS011;19470;49.322;7.218;2023-04-21T01:20:22;27.63;;;15.80;;
18274;SDS011;19470;49.322;7.218;2023-04-21T01:22:59;20.35;;;14.55;;
18274;SDS011;19470;49.322;7.218;2023-04-21T01:25:25;21.83;;;14.47;;
18274;SDS011;19470;49.322;7.218;2023-04-21T01:27:52;21.35;;;14.13;;
18274;SDS011;19470;49.322;7.218;2023-04-21T01:30:19;23.30;;;15.05;;
18274;SDS011;19470;49.322;7.218;2023-04-21T01:32:45;21.30;;;14.32;;
18274;SDS011;19470;49.322;7.218;2023-04-21T01:35:12;24.08;;;15.77;;
18274;SDS011;19470;49.322;7.218;2023-04-21T01:37:38;19.85;;;14.20;;
18274;SDS011;19470;49.322;7.218;2023-04-21T01:40:07;21.37;;;14.33;;
18274;SDS011;19470;49.322;7.218;2023-04-21T01:42:35;20.83;;;13.97;;
18274;SDS011;19470;49.322;7.218;2023-04-21T01:45:03;21.38;;;14.20;;
18274;SDS011;19470;49.322;7.218;2023-04-21T01:47:31;22.67;;;14.90;;
18274;SDS011;19470;49.322;7.218;2023-04-21T01:49:57;21.33;;;14.32;;
18274;SDS011;19470;49.322;7.218;2023-04-21T01:52:24;27.80;;;16.37;;
18274;SDS011;19470;49.322;7.218;2023-04-21T01:54:50;27.43;;;17.13;;
18274;SDS011;19470;49.322;7.218;2023-04-21T01:57:18;31.07;;;18.50;;
18274;SDS011;19470;49.322;7.218;2023-04-21T01:59:45;33.70;;;20.30;;
18274;SDS011;19470;49.322;7.218;2023-04-21T02:02:12;165.27;;;80.67;;
18274;SDS011;19470;49.322;7.218;2023-04-21T02:04:38;30.10;;;18.60;;
18274;SDS011;19470;49.322;7.218;2023-04-21T02:07:05;29.90;;;19.05;;
18274;SDS011;19470;49.322;7.218;2023-04-21T02:09:32;36.27;;;20.10;;
18274;SDS011;19470;49.322;7.218;2023-04-21T02:11:58;29.47;;;18.63;;
18274;SDS011;19470;49.322;7.218;2023-04-21T02:14:27;28.87;;;17.47;;
18274;SDS011;19470;49.322;7.218;2023-04-21T02:16:53;29.58;;;18.65;;
18274;SDS011;19470;49.322;7.218;2023-04-21T02:19:21;28.17;;;17.03;;
18274;SDS011;19470;49.322;7.218;2023-04-21T02:21:47;25.70;;;15.27;;
18274;SDS011;19470;49.322;7.218;2023-04-21T02:24:14;22.23;;;14.57;;
18274;SDS011;19470;49.322;7.218;2023-04-21T02:26:40;22.10;;;14.52;;
18274;SDS011;19470;49.322;7.218;2023-04-21T02:29:07;22.07;;;14.40;;
18274;SDS011;19470;49.322;7.218;2023-04-21T02:31:34;26.65;;;16.42;;
18274;SDS011;19470;49.322;7.218;2023-04-21T02:34:01;23.17;;;15.33;;
18274;SDS011;19470;49.322;7.218;2023-04-21T02:36:27;22.97;;;14.87;;
18274;SDS011;19470;49.322;7.218;2023-04-21T02:38:54;22.02;;;14.10;;
18274;SDS011;19470;49.322;7.218;2023-04-21T02:41:21;21.70;;;13.33;;
18274;SDS011;19470;49.322;7.218;2023-04-21T02:43:48;20.47;;;13.70;;
18274;SDS011;19470;49.322;7.218;2023-04-21T02:46:14;23.30;;;13.40;;
18274;SDS011;19470;49.322;7.218;2023-04-21T02:48:42;26.13;;;16.55;;
18274;SDS011;19470;49.322;7.218;2023-04-21T02:51:12;26.10;;;16.57;;
18274;SDS011;19470;49.322;7.218;2023-04-21T02:53:39;78.90;;;41.63;;
18274;SDS011;19470;49.322;7.218;2023-04-21T02:56:06;68.60;;;21.23;;
18274;SDS011;19470;49.322;7.218;2023-04-21T02:58:33;47.50;;;23.13;;
18274;SDS011;19470;49.322;7.218;2023-04-21T03:01:00;43.17;;;23.23;;
18274;SDS011;19470;49.322;7.218;2023-04-21T03:03:27;55.90;;;22.67;;
18274;SDS011;19470;49.322;7.218;2023-04-21T03:05:58;55.43;;;23.93;;
18274;SDS011;19470;49.322;7.218;2023-04-21T03:08:26;127.90;;;26.13;;
18274;SDS011;19470;49.322;7.218;2023-04-21T03:10:53;42.50;;;22.27;;
18274;SDS011;19470;49.322;7.218;2023-04-21T03:13:19;40.57;;;20.37;;
18274;SDS011;19470;49.322;7.218;2023-04-21T03:15:47;42.30;;;22.37;;
18274;SDS011;19470;49.322;7.218;2023-04-21T03:18:14;40.53;;;19.92;;
18274;SDS011;19470;49.322;7.218;2023-04-21T03:20:40;42.83;;;20.17;;
18274;SDS011;19470;49.322;7.218;2023-04-21T03:23:08;119.93;;;54.30;;
18274;SDS011;19470;49.322;7.218;2023-04-21T03:25:36;133.55;;;68.43;;
18274;SDS011;19470;49.322;7.218;2023-04-21T03:28:03;64.18;;;22.00;;
18274;SDS011;19470;49.322;7.218;2023-04-21T03:30:30;35.45;;;20.20;;
18274;SDS011;19470;49.322;7.218;2023-04-21T03:32:57;33.63;;;18.90;;
18274;SDS011;19470;49.322;7.218;2023-04-21T03:35:23;43.78;;;21.05;;
18274;SDS011;19470;49.322;7.218;2023-04-21T03:37:50;50.80;;;22.23;;
18274;SDS011;19470;49.322;7.218;2023-04-21T03:40:18;34.75;;;20.58;;
18274;SDS011;19470;49.322;7.218;2023-04-21T03:42:44;113.70;;;24.20;;
18274;SDS011;19470;49.322;7.218;2023-04-21T03:45:11;61.38;;;21.42;;
18274;SDS011;19470;49.322;7.218;2023-04-21T03:47:38;51.10;;;21.92;;
18274;SDS011;19470;49.322;7.218;2023-04-21T03:50:05;99.32;;;23.63;;
18274;SDS011;19470;49.322;7.218;2023-04-21T03:52:32;50.27;;;22.20;;
18274;SDS011;19470;49.322;7.218;2023-04-21T03:54:58;43.33;;;23.10;;
18274;SDS011;19470;49.322;7.218;2023-04-21T03:57:26;100.10;;;24.85;;
18274;SDS011;19470;49.322;7.218;2023-04-21T03:59:53;121.13;;;25.88;;
18274;SDS011;19470;49.322;7.218;2023-04-21T04:02:19;145.53;;;29.03;;
18274;SDS011;19470;49.322;7.218;2023-04-21T04:04:46;290.73;;;32.88;;
18274;SDS011;19470;49.322;7.218;2023-04-21T04:07:13;40.53;;;23.63;;
18274;SDS011;19470;49.322;7.218;2023-04-21T04:09:41;42.47;;;23.67;;
18274;SDS011;19470;49.322;7.218;2023-04-21T04:12:08;43.25;;;24.13;;
18274;SDS011;19470;49.322;7.218;2023-04-21T04:14:36;42.88;;;24.45;;
18274;SDS011;19470;49.322;7.218;2023-04-21T04:17:03;43.22;;;23.25;;
18274;SDS011;19470;49.322;7.218;2023-04-21T04:19:29;163.05;;;25.63;;
18274;SDS011;19470;49.322;7.218;2023-04-21T04:21:57;50.85;;;23.55;;
18274;SDS011;19470;49.322;7.218;2023-04-21T04:24:23;81.63;;;23.47;;
18274;SDS011;19470;49.322;7.218;2023-04-21T04:26:51;50.95;;;21.92;;
18274;SDS011;19470;49.322;7.218;2023-04-21T04:29:19;48.63;;;21.13;;
18274;SDS011;19470;49.322;7.218;2023-04-21T04:31:47;354.10;;;34.88;;
18274;SDS011;19470;49.322;7.218;2023-04-21T04:34:14;192.30;;;28.85;;
18274;SDS011;19470;49.322;7.218;2023-04-21T04:36:41;66.05;;;25.30;;
18274;SDS011;19470;49.322;7.218;2023-04-21T04:39:08;92.50;;;26.83;;
18274;SDS011;19470;49.322;7.218;2023-04-21T04:41:36;45.78;;;24.42;;
18274;SDS011;19470;49.322;7.218;2023-04-21T04:44:03;66.63;;;23.75;;
18274;SDS011;19470;49.322;7.218;2023-04-21T04:46:30;59.92;;;24.38;;
18274;SDS011;19470;49.322;7.218;2023-04-21T04:48:57;70.80;;;23.42;;
18274;SDS011;19470;49.322;7.218;2023-04-21T04:51:24;108.73;;;26.20;;
18274;SDS011;19470;49.322;7.218;2023-04-21T04:53:51;41.13;;;22.08;;
18274;SDS011;19470;49.322;7.218;2023-04-21T04:56:17;78.88;;;24.60;;
18274;SDS011;19470;49.322;7.218;2023-04-21T04:58:44;81.25;;;24.98;;
18274;SDS011;19470;49.322;7.218;2023-04-21T05:01:11;56.78;;;23.25;;
18274;SDS011;19470;49.322;7.218;2023-04-21T05:03:38;79.53;;;24.30;;
18274;SDS011;19470;49.322;7.218;2023-04-21T05:06:06;84.60;;;25.13;;
18274;SDS011;19470;49.322;7.218;2023-04-21T05:08:33;138.93;;;26.33;;
18274;SDS011;19470;49.322;7.218;2023-04-21T05:11:00;68.87;;;26.13;;
18274;SDS011;19470;49.322;7.218;2023-04-21T05:13:27;43.97;;;25.33;;
18274;SDS011;19470;49.322;7.218;2023-04-21T05:15:55;42.63;;;23.42;;
18274;SDS011;19470;49.322;7.218;2023-04-21T05:18:22;86.93;;;26.88;;
18274;SDS011;19470;49.322;7.218;2023-04-21T05:20:50;42.47;;;23.63;;
18274;SDS011;19470;49.322;7.218;2023-04-21T05:23:18;37.17;;;22.60;;
18274;SDS011;19470;49.322;7.218;2023-04-21T05:25:45;52.58;;;22.70;;
18274;SDS011;19470;49.322;7.218;2023-04-21T05:28:12;65.72;;;23.35;;
18274;SDS011;19470;49.322;7.218;2023-04-21T05:30:38;50.83;;;23.52;;
18274;SDS011;19470;49.322;7.218;2023-04-21T05:33:05;46.72;;;23.63;;
18274;SDS011;19470;49.322;7.218;2023-04-21T05:35:33;39.65;;;23.10;;
18274;SDS011;19470;49.322;7.218;2023-04-21T05:38:00;39.97;;;21.40;;
18274;SDS011;19470;49.322;7.218;2023-04-21T05:40:28;50.00;;;22.02;;
18274;SDS011;19470;49.322;7.218;2023-04-21T05:42:54;121.40;;;23.48;;
18274;SDS011;19470;49.322;7.218;2023-04-21T05:45:21;54.47;;;22.13;;
18274;SDS011;19470;49.322;7.218;2023-04-21T05:47:47;37.90;;;21.38;;
18274;SDS011;19470;49.322;7.218;2023-04-21T05:50:13;74.22;;;23.77;;
18274;SDS011;19470;49.322;7.218;2023-04-21T05:52:41;41.15;;;22.80;;
18274;SDS011;19470;49.322;7.218;2023-04-21T05:55:07;36.38;;;22.05;;
18274;SDS011;19470;49.322;7.218;2023-04-21T05:57:35;45.40;;;23.13;;
18274;SDS011;19470;49.322;7.218;2023-04-21T06:00:02;37.47;;;22.02;;
18274;SDS011;19470;49.322;7.218;2023-04-21T06:02:28;35.47;;;21.98;;
18274;SDS011;19470;49.322;7.218;2023-04-21T06:04:55;39.90;;;21.33;;
18274;SDS011;19470;49.322;7.218;2023-04-21T06:07:21;34.00;;;20.55;;
18274;SDS011;19470;49.322;7.218;2023-04-21T06:09:48;32.70;;;21.17;;
18274;SDS011;19470;49.322;7.218;2023-04-21T06:12:15;35.78;;;20.45;;
18274;SDS011;19470;49.322;7.218;2023-04-21T06:14:43;37.22;;;22.15;;
18274;SDS011;19470;49.322;7.218;2023-04-21T06:17:09;33.92;;;21.95;;
18274;SDS011;19470;49.322;7.218;2023-04-21T06:19:36;36.20;;;23.40;;
18274;SDS011;19470;49.322;7.218;2023-04-21T06:22:03;32.25;;;21.38;;
18274;SDS011;19470;49.322;7.218;2023-04-21T06:24:30;34.17;;;22.33;;
18274;SDS011;19470;49.322;7.218;2023-04-21T06:26:57;31.73;;;21.55;;
18274;SDS011;19470;49.322;7.218;2023-04-21T06:29:23;33.33;;;21.58;;
18274;SDS011;19470;49.322;7.218;2023-04-21T06:31:51;29.52;;;19.90;;
18274;SDS011;19470;49.322;7.218;2023-04-21T06:34:18;33.47;;;22.50;;
18274;SDS011;19470;49.322;7.218;2023-04-21T06:36:45;32.22;;;21.77;;
18274;SDS011;19470;49.322;7.218;2023-04-21T06:39:11;31.30;;;21.85;;
18274;SDS011;19470;49.322;7.218;2023-04-21T06:41:38;31.65;;;22.17;;
18274;SDS011;19470;49.322;7.218;2023-04-21T06:44:04;31.90;;;23.38;;
18274;SDS011;19470;49.322;7.218;2023-04-21T06:46:31;30.33;;;22.38;;
18274;SDS011;19470;49.322;7.218;2023-04-21T06:48:59;31.42;;;22.65;;
18274;SDS011;19470;49.322;7.218;2023-04-21T06:51:25;29.77;;;23.92;;
18274;SDS011;19470;49.322;7.218;2023-04-21T06:53:52;53.25;;;48.42;;
18274;SDS011;19470;49.322;7.218;2023-04-21T06:56:18;28.58;;;23.15;;
18274;SDS011;19470;49.322;7.218;2023-04-21T06:58:45;29.75;;;24.13;;
18274;SDS011;19470;49.322;7.218;2023-04-21T07:01:11;29.77;;;26.35;;
18274;SDS011;19470;49.322;7.218;2023-04-21T07:03:38;36.78;;;33.63;;
18274;SDS011;19470;49.322;7.218;2023-04-21T07:06:06;48.72;;;44.33;;
18274;SDS011;19470;49.322;7.218;2023-04-21T07:08:33;32.22;;;29.33;;
18274;SDS011;19470;49.322;7.218;2023-04-21T07:10:59;34.25;;;30.95;;
18274;SDS011;19470;49.322;7.218;2023-04-21T07:13:25;71.00;;;65.90;;
18274;SDS011;19470;49.322;7.218;2023-04-21T07:15:52;45.83;;;41.47;;
18274;SDS011;19470;49.322;7.218;2023-04-21T07:18:19;35.47;;;32.35;;
18274;SDS011;19470;49.322;7.218;2023-04-21T07:20:45;41.15;;;37.63;;
18274;SDS011;19470;49.322;7.218;2023-04-21T07:23:13;40.50;;;37.30;;
18274;SDS011;19470;49.322;7.218;2023-04-21T07:25:40;61.60;;;57.50;;
18274;SDS011;19470;49.322;7.218;2023-04-21T07:28:06;67.07;;;62.50;;
18274;SDS011;19470;49.322;7.218;2023-04-21T07:30:33;67.65;;;63.33;;
18274;SDS011;19470;49.322;7.218;2023-04-21T07:32:59;179.82;;;169.10;;
18274;SDS011;19470;49.322;7.218;2023-04-21T07:35:26;49.05;;;45.28;;
18274;SDS011;19470;49.322;7.218;2023-04-21T07:37:53;52.45;;;48.67;;
18274;SDS011;19470;49.322;7.218;2023-04-21T07:40:20;60.25;;;55.75;;
18274;SDS011;19470;49.322;7.218;2023-04-21T07:42:47;37.30;;;34.33;;
18274;SDS011;19470;49.322;7.218;2023-04-21T07:45:13;47.38;;;43.92;;
18274;SDS011;19470;49.322;7.218;2023-04-21T07:47:40;58.20;;;54.03;;
18274;SDS011;19470;49.322;7.218;2023-04-21T07:50:07;49.03;;;45.33;;
18274;SDS011;19470;49.322;7.218;2023-04-21T07:52:34;56.72;;;52.80;;
18274;SDS011;19470;49.322;7.218;2023-04-21T07:55:01;40.80;;;37.58;;
18274;SDS011;19470;49.322;7.218;2023-04-21T07:57:29;40.67;;;37.58;;
18274;SDS011;19470;49.322;7.218;2023-04-21T07:59:57;52.47;;;48.75;;
18274;SDS011;19470;49.322;7.218;2023-04-21T08:02:24;124.60;;;117.45;;
18274;SDS011;19470;49.322;7.218;2023-04-21T08:04:50;62.75;;;58.75;;
18274;SDS011;19470;49.322;7.218;2023-04-21T08:07:17;111.30;;;104.57;;
18274;SDS011;19470;49.322;7.218;2023-04-21T08:09:43;124.82;;;117.57;;
18274;SDS011;19470;49.322;7.218;2023-04-21T08:12:10;89.50;;;84.15;;
18274;SDS011;19470;49.322;7.218;2023-04-21T08:14:38;128.85;;;121.38;;
18274;SDS011;19470;49.322;7.218;2023-04-21T08:17:05;145.18;;;137.23;;
18274;SDS011;19470;49.322;7.218;2023-04-21T08:19:31;121.60;;;114.78;;
18274;SDS011;19470;49.322;7.218;2023-04-21T08:21:58;166.57;;;157.40;;
18274;SDS011;19470;49.322;7.218;2023-04-21T08:24:24;208.80;;;197.80;;
18274;SDS011;19470;49.322;7.218;2023-04-21T08:26:51;229.80;;;217.63;;
18274;SDS011;19470;49.322;7.218;2023-04-21T08:29:18;120.40;;;113.72;;
18274;SDS011;19470;49.322;7.218;2023-04-21T08:31:45;130.68;;;123.47;;
18274;SDS011;19470;49.322;7.218;2023-04-21T08:34:12;135.93;;;128.43;;
18274;SDS011;19470;49.322;7.218;2023-04-21T08:36:38;282.50;;;267.52;;
18274;SDS011;19470;49.322;7.218;2023-04-21T08:39:06;169.77;;;160.75;;
18274;SDS011;19470;49.322;7.218;2023-04-21T08:41:33;192.70;;;182.52;;
18274;SDS011;19470;49.322;7.218;2023-04-21T08:44:00;239.75;;;227.45;;
18274;SDS011;19470;49.322;7.218;2023-04-21T08:46:26;264.88;;;251.43;;
18274;SDS011;19470;49.322;7.218;2023-04-21T08:48:55;347.25;;;329.15;;
18274;SDS011;19470;49.322;7.218;2023-04-21T08:51:23;301.38;;;286.00;;
18274;SDS011;19470;49.322;7.218;2023-04-21T08:53:54;282.83;;;268.20;;
18274;SDS011;19470;49.322;7.218;2023-04-21T08:56:22;268.05;;;254.10;;
18274;SDS011;19470;49.322;7.218;2023-04-21T08:58:49;282.75;;;268.30;;
18274;SDS011;19470;49.322;7.218;2023-04-21T09:01:16;345.98;;;328.10;;
18274;SDS011;19470;49.322;7.218;2023-04-21T09:03:42;319.23;;;303.15;;
18274;SDS011;19470;49.322;7.218;2023-04-21T09:06:11;339.13;;;321.73;;
18274;SDS011;19470;49.322;7.218;2023-04-21T09:08:38;266.63;;;253.15;;
18274;SDS011;19470;49.322;7.218;2023-04-21T09:11:07;246.80;;;234.40;;
18274;SDS011;19470;49.322;7.218;2023-04-21T09:13:38;255.10;;;242.35;;
18274;SDS011;19470;49.322;7.218;2023-04-21T09:16:14;257.13;;;244.20;;
18274;SDS011;19470;49.322;7.218;2023-04-21T09:18:44;261.92;;;248.80;;
18274;SDS011;19470;49.322;7.218;2023-04-21T09:21:12;247.73;;;235.23;;
18274;SDS011;19470;49.322;7.218;2023-04-21T09:23:40;240.63;;;228.50;;
18274;SDS011;19470;49.322;7.218;2023-04-21T09:26:07;223.73;;;212.55;;
18274;SDS011;19470;49.322;7.218;2023-04-21T09:28:34;225.10;;;213.88;;
18274;SDS011;19470;49.322;7.218;2023-04-21T09:31:01;260.13;;;247.13;;
18274;SDS011;19470;49.322;7.218;2023-04-21T09:33:33;245.75;;;233.30;;
18274;SDS011;19470;49.322;7.218;2023-04-21T09:36:00;257.55;;;244.63;;
18274;SDS011;19470;49.322;7.218;2023-04-21T09:38:29;281.83;;;267.48;;
18274;SDS011;19470;49.322;7.218;2023-04-21T09:40:56;291.98;;;277.35;;
18274;SDS011;19470;49.322;7.218;2023-04-21T09:43:22;326.45;;;309.95;;
18274;SDS011;19470;49.322;7.218;2023-04-21T09:45:49;410.10;;;388.30;;
18274;SDS011;19470;49.322;7.218;2023-04-21T09:48:16;341.92;;;324.40;;
18274;SDS011;19470;49.322;7.218;2023-04-21T09:50:43;363.02;;;344.13;;
18274;SDS011;19470;49.322;7.218;2023-04-21T09:53:12;386.67;;;366.58;;
18274;SDS011;19470;49.322;7.218;2023-04-21T09:55:41;477.02;;;450.50;;
18274;SDS011;19470;49.322;7.218;2023-04-21T09:58:11;422.70;;;399.33;;
18274;SDS011;19470;49.322;7.218;2023-04-21T10:00:41;453.15;;;428.75;;
18274;SDS011;19470;49.322;7.218;2023-04-21T10:03:08;446.25;;;422.10;;
18274;SDS011;19470;49.322;7.218;2023-04-21T10:05:36;488.35;;;461.45;;
18274;SDS011;19470;49.322;7.218;2023-04-21T10:08:03;515.83;;;486.63;;
18274;SDS011;19470;49.322;7.218;2023-04-21T10:10:31;520.42;;;491.42;;
18274;SDS011;19470;49.322;7.218;2023-04-21T10:13:01;502.70;;;474.75;;
18274;SDS011;19470;49.322;7.218;2023-04-21T10:15:29;509.42;;;481.15;;
18274;SDS011;19470;49.322;7.218;2023-04-21T10:18:12;440.85;;;417.23;;
18274;SDS011;19470;49.322;7.218;2023-04-21T10:20:49;409.60;;;387.95;;
18274;SDS011;19470;49.322;7.218;2023-04-21T10:23:24;302.63;;;287.60;;
18274;SDS011;19470;49.322;7.218;2023-04-21T10:25:52;290.35;;;276.17;;
18274;SDS011;19470;49.322;7.218;2023-04-21T10:28:20;213.85;;;203.45;;
18274;SDS011;19470;49.322;7.218;2023-04-21T10:34:11;146.60;;;139.38;;
18274;SDS011;19470;49.322;7.218;2023-04-21T10:36:46;137.52;;;130.73;;
18274;SDS011;19470;49.322;7.218;2023-04-21T10:39:25;122.70;;;116.70;;
18274;SDS011;19470;49.322;7.218;2023-04-21T10:41:54;117.47;;;111.70;;
18274;SDS011;19470;49.322;7.218;2023-04-21T10:44:23;100.47;;;95.50;;
18274;SDS011;19470;49.322;7.218;2023-04-21T10:46:50;84.10;;;79.95;;
18274;SDS011;19470;49.322;7.218;2023-04-21T10:49:21;54.95;;;52.20;;
18274;SDS011;19470;49.322;7.218;2023-04-21T10:52:05;45.58;;;43.25;;
18274;SDS011;19470;49.322;7.218;2023-04-21T10:54:37;92.03;;;87.50;;
18274;SDS011;19470;49.322;7.218;2023-04-21T10:57:10;119.30;;;113.53;;
18274;SDS011;19470;49.322;7.218;2023-04-21T10:59:39;212.77;;;202.35;;
18274;SDS011;19470;49.322;7.218;2023-04-21T11:02:05;321.88;;;306.08;;
18274;SDS011;19470;49.322;7.218;2023-04-21T11:04:33;415.42;;;393.30;;
18274;SDS011;19470;49.322;7.218;2023-04-21T11:07:06;370.65;;;351.50;;
18274;SDS011;19470;49.322;7.218;2023-04-21T11:09:32;308.35;;;293.23;;
18274;SDS011;19470;49.322;7.218;2023-04-21T11:12:00;233.68;;;222.40;;
18274;SDS011;19470;49.322;7.218;2023-04-21T11:14:28;195.50;;;186.05;;
18274;SDS011;19470;49.322;7.218;2023-04-21T11:16:56;135.57;;;128.95;;
18274;SDS011;19470;49.322;7.218;2023-04-21T11:19:23;76.10;;;72.32;;
18274;SDS011;19470;49.322;7.218;2023-04-21T11:21:50;74.63;;;71.00;;
18274;SDS011;19470;49.322;7.218;2023-04-21T11:24:18;76.25;;;72.50;;
18274;SDS011;19470;49.322;7.218;2023-04-21T11:26:45;104.63;;;99.63;;
18274;SDS011;19470;49.322;7.218;2023-04-21T11:29:12;79.18;;;75.28;;
18274;SDS011;19470;49.322;7.218;2023-04-21T11:31:39;58.42;;;55.55;;
18274;SDS011;19470;49.322;7.218;2023-04-21T11:34:08;51.70;;;49.10;;
18274;SDS011;19470;49.322;7.218;2023-04-21T11:36:35;42.88;;;40.67;;
18274;SDS011;19470;49.322;7.218;2023-04-21T11:39:04;42.97;;;40.58;;
18274;SDS011;19470;49.322;7.218;2023-04-21T11:41:34;43.00;;;40.70;;
18274;SDS011;19470;49.322;7.218;2023-04-21T11:44:01;56.00;;;52.90;;
18274;SDS011;19470;49.322;7.218;2023-04-21T11:46:28;64.65;;;61.15;;
18274;SDS011;19470;49.322;7.218;2023-04-21T11:48:57;63.30;;;60.10;;
18274;SDS011;19470;49.322;7.218;2023-04-21T11:51:26;59.85;;;56.90;;
18274;SDS011;19470;49.322;7.218;2023-04-21T11:53:58;66.45;;;63.15;;
18274;SDS011;19470;49.322;7.218;2023-04-21T11:56:25;68.00;;;64.65;;
18274;SDS011;19470;49.322;7.218;2023-04-21T11:58:51;67.80;;;64.47;;
18274;SDS011;19470;49.322;7.218;2023-04-21T12:01:18;64.38;;;61.17;;
18274;SDS011;19470;49.322;7.218;2023-04-21T12:03:52;81.75;;;77.65;;
18274;SDS011;19470;49.322;7.218;2023-04-21T12:06:19;94.03;;;89.53;;
18274;SDS011;19470;49.322;7.218;2023-04-21T12:08:48;89.60;;;85.15;;
18274;SDS011;19470;49.322;7.218;2023-04-21T12:11:19;73.85;;;70.15;;
18274;SDS011;19470;49.322;7.218;2023-04-21T12:13:46;80.13;;;76.22;;
18274;SDS011;19470;49.322;7.218;2023-04-21T12:16:13;83.10;;;79.13;;
18274;SDS011;19470;49.322;7.218;2023-04-21T12:18:41;131.35;;;125.00;;
18274;SDS011;19470;49.322;7.218;2023-04-21T12:21:08;217.70;;;207.23;;
18274;SDS011;19470;49.322;7.218;2023-04-21T12:23:34;355.45;;;337.52;;
18274;SDS011;19470;49.322;7.218;2023-04-21T12:26:04;250.43;;;238.32;;
18274;SDS011;19470;49.322;7.218;2023-04-21T12:28:31;192.07;;;182.77;;
18274;SDS011;19470;49.322;7.218;2023-04-21T12:30:57;176.73;;;165.05;;
18274;SDS011;19470;49.322;7.218;2023-04-21T12:33:23;92.53;;;88.03;;
18274;SDS011;19470;49.322;7.218;2023-04-21T12:35:50;47.72;;;45.38;;
18274;SDS011;19470;49.322;7.218;2023-04-21T12:38:16;61.33;;;58.30;;
18274;SDS011;19470;49.322;7.218;2023-04-21T12:40:43;85.13;;;80.97;;
18274;SDS011;19470;49.322;7.218;2023-04-21T12:43:11;118.35;;;111.97;;
18274;SDS011;19470;49.322;7.218;2023-04-21T12:45:37;122.38;;;116.43;;
18274;SDS011;19470;49.322;7.218;2023-04-21T12:48:04;144.27;;;137.27;;
18274;SDS011;19470;49.322;7.218;2023-04-21T12:50:31;166.07;;;158.02;;
18274;SDS011;19470;49.322;7.218;2023-04-21T12:52:57;164.48;;;156.48;;
18274;SDS011;19470;49.322;7.218;2023-04-21T12:55:24;206.93;;;196.98;;
18274;SDS011;19470;49.322;7.218;2023-04-21T12:57:51;165.70;;;157.43;;
18274;SDS011;19470;49.322;7.218;2023-04-21T13:00:19;180.43;;;171.65;;
18274;SDS011;19470;49.322;7.218;2023-04-21T13:02:46;205.00;;;195.10;;
18274;SDS011;19470;49.322;7.218;2023-04-21T13:05:12;218.93;;;208.40;;
18274;SDS011;19470;49.322;7.218;2023-04-21T13:07:39;225.60;;;214.70;;
18274;SDS011;19470;49.322;7.218;2023-04-21T13:10:06;221.70;;;210.93;;
18274;SDS011;19470;49.322;7.218;2023-04-21T13:12:32;228.95;;;217.88;;
18274;SDS011;19470;49.322;7.218;2023-04-21T13:14:59;218.85;;;208.23;;
18274;SDS011;19470;49.322;7.218;2023-04-21T13:17:27;172.43;;;164.02;;
18274;SDS011;19470;49.322;7.218;2023-04-21T13:19:54;128.60;;;122.47;;
18274;SDS011;19470;49.322;7.218;2023-04-21T13:22:21;111.80;;;106.45;;
18274;SDS011;19470;49.322;7.218;2023-04-21T13:24:47;60.17;;;57.08;;
18274;SDS011;19470;49.322;7.218;2023-04-21T13:27:14;33.42;;;31.75;;
18274;SDS011;19470;49.322;7.218;2023-04-21T13:29:40;45.80;;;43.45;;
18274;SDS011;19470;49.322;7.218;2023-04-21T13:32:07;56.88;;;54.08;;
18274;SDS011;19470;49.322;7.218;2023-04-21T13:34:35;66.28;;;63.05;;
18274;SDS011;19470;49.322;7.218;2023-04-21T13:37:01;60.28;;;57.13;;
18274;SDS011;19470;49.322;7.218;2023-04-21T13:39:28;70.30;;;66.85;;
18274;SDS011;19470;49.322;7.218;2023-04-21T13:41:54;62.58;;;59.47;;
18274;SDS011;19470;49.322;7.218;2023-04-21T13:44:22;69.07;;;65.50;;
18274;SDS011;19470;49.322;7.218;2023-04-21T13:46:48;93.95;;;89.45;;
18274;SDS011;19470;49.322;7.218;2023-04-21T13:49:16;68.85;;;65.50;;
18274;SDS011;19470;49.322;7.218;2023-04-21T13:51:44;79.03;;;75.25;;
18274;SDS011;19470;49.322;7.218;2023-04-21T13:54:10;68.10;;;64.78;;
18274;SDS011;19470;49.322;7.218;2023-04-21T13:56:36;72.53;;;69.03;;
18274;SDS011;19470;49.322;7.218;2023-04-21T13:59:03;58.00;;;55.15;;
18274;SDS011;19470;49.322;7.218;2023-04-21T14:01:30;71.80;;;68.32;;
18274;SDS011;19470;49.322;7.218;2023-04-21T14:03:56;56.47;;;53.63;;
18274;SDS011;19470;49.322;7.218;2023-04-21T14:06:23;94.90;;;90.35;;
18274;SDS011;19470;49.322;7.218;2023-04-21T14:08:51;83.13;;;79.07;;
18274;SDS011;19470;49.322;7.218;2023-04-21T14:11:19;91.43;;;87.03;;
18274;SDS011;19470;49.322;7.218;2023-04-21T14:13:45;94.22;;;89.68;;
18274;SDS011;19470;49.322;7.218;2023-04-21T14:16:12;96.07;;;91.47;;
18274;SDS011;19470;49.322;7.218;2023-04-21T14:18:39;104.57;;;99.60;;